Time;durP1;ratioP1;P1;durP2;ratioP2;P2;SDS_P1;SDS_P2;PMS_P1;PMS_P2;Temp;Humidity;BMP_temperature;BMP_pressure;BME280_temperature;BME280_humidity;BME280_pressure;Samples;Min_cycle;Max_cycle;Signal;HPM_P1;HPM_P2
2021/03/05 00:00:12;;;;;;;0.00;0.00;;;2.90;99.90;;;;;;6214480;23;20382;-71
2021/03/05 00:02:39;;;;;;;0.00;0.00;;;2.90;99.90;;;;;;6214930;23;20675;-71
2021/03/05 00:05:07;;;;;;;0.00;0.00;;;3.00;99.90;;;;;;6214915;23;20383;-71
2021/03/05 00:07:34;;;;;;;0.00;0.00;;;3.00;99.90;;;;;;6214456;23;20378;-73
2021/03/05 00:10:00;;;;;;;0.00;0.00;;;2.90;99.90;;;;;;6214329;23;20376;-71
2021/03/05 00:12:26;;;;;;;0.00;0.00;;;3.00;99.90;;;;;;6214672;23;20382;-71
2021/03/05 00:14:53;;;;;;;0.00;0.00;;;2.90;99.90;;;;;;6214742;23;20371;-71
2021/03/05 00:17:19;;;;;;;0.00;0.00;;;2.90;99.90;;;;;;6213347;23;20376;-71
2021/03/05 00:19:45;;;;;;;0.00;0.00;;;2.90;99.90;;;;;;6214039;23;20376;-71
2021/03/05 00:22:11;;;;;;;0.00;0.00;;;3.00;99.90;;;;;;6214402;23;20371;-71
2021/03/05 00:24:38;;;;;;;0.00;0.00;;;3.00;99.90;;;;;;6214712;23;20382;-71
2021/03/05 00:27:05;;;;;;;0.00;0.00;;;3.00;99.90;;;;;;6214210;23;20395;-71
2021/03/05 00:29:31;;;;;;;0.00;0.00;;;2.90;99.90;;;;;;6214546;23;20376;-71
2021/03/05 00:31:57;;;;;;;0.00;0.00;;;2.90;99.90;;;;;;6214165;23;20846;-71
2021/03/05 00:34:23;;;;;;;0.00;0.00;;;3.00;99.90;;;;;;6213988;23;20371;-71
2021/03/05 00:36:50;;;;;;;0.00;0.00;;;3.00;99.90;;;;;;6214402;23;20426;-71
2021/03/05 00:39:16;;;;;;;0.00;0.00;;;3.00;99.90;;;;;;6214379;23;20379;-71
2021/03/05 00:41:43;;;;;;;0.00;0.00;;;3.00;99.90;;;;;;6214367;23;20375;-72
2021/03/05 00:44:09;;;;;;;0.00;0.00;;;3.00;99.90;;;;;;6214556;23;20433;-71
2021/03/05 00:46:35;;;;;;;0.00;0.00;;;2.80;99.90;;;;;;6213822;23;20391;-71
2021/03/05 00:49:01;;;;;;;0.00;0.00;;;2.70;99.90;;;;;;6214190;23;20372;-71
2021/03/05 00:51:27;;;;;;;0.00;0.00;;;2.80;99.90;;;;;;6213886;23;20418;-71
2021/03/05 00:53:54;;;;;;;0.00;0.00;;;2.70;99.90;;;;;;6214093;23;20375;-72
2021/03/05 00:56:20;;;;;;;0.00;0.00;;;2.70;99.90;;;;;;6213795;23;20430;-72
2021/03/05 00:58:48;;;;;;;0.00;0.00;;;2.70;99.90;;;;;;6213855;23;20371;-71
2021/03/05 01:01:14;;;;;;;0.00;0.00;;;2.70;99.90;;;;;;6214367;23;20383;-72
2021/03/05 01:03:40;;;;;;;0.00;0.00;;;2.80;99.90;;;;;;6214086;23;20475;-72
2021/03/05 01:06:07;;;;;;;0.00;0.00;;;2.60;99.90;;;;;;6214616;23;20395;-71
2021/03/05 01:08:33;;;;;;;0.00;0.00;;;2.60;99.90;;;;;;6213846;23;20375;-71
2021/03/05 01:10:59;;;;;;;0.00;0.00;;;2.70;99.90;;;;;;6213910;23;20862;-72
2021/03/05 01:13:25;;;;;;;0.00;0.00;;;2.70;99.90;;;;;;6213909;23;20758;-72
2021/03/05 01:15:52;;;;;;;0.00;0.00;;;2.60;99.90;;;;;;6213375;23;20430;-71
2021/03/05 01:18:18;;;;;;;0.00;0.00;;;2.70;1.00;;;;;;6213513;23;20375;-71
2021/03/05 01:20:44;;;;;;;0.00;0.00;;;2.80;1.00;;;;;;6213777;23;20406;-72
2021/03/05 01:23:12;;;;;;;0.00;0.00;;;2.80;1.00;;;;;;6214131;23;20383;-71
2021/03/05 01:25:39;;;;;;;0.00;0.00;;;2.90;1.00;;;;;;6213172;23;20944;-72
2021/03/05 01:28:05;;;;;;;0.00;0.00;;;3.00;1.00;;;;;;6213432;23;20383;-72
2021/03/05 01:30:31;;;;;;;0.00;0.00;;;3.00;1.00;;;;;;6213602;23;20372;-72
2021/03/05 01:32:58;;;;;;;0.00;0.00;;;3.00;1.00;;;;;;6213361;23;20382;-72
2021/03/05 01:35:26;;;;;;;0.00;0.00;;;3.00;1.00;;;;;;6213865;23;20375;-70
2021/03/05 01:37:52;;;;;;;0.00;0.00;;;3.00;1.00;;;;;;6212966;23;20376;-71
2021/03/05 01:40:21;;;;;;;0.00;0.00;;;3.10;1.00;;;;;;6213735;23;20393;-70
2021/03/05 01:42:47;;;;;;;0.00;0.00;;;3.10;1.00;;;;;;6213525;23;20376;-70
2021/03/05 01:45:19;;;;;;;0.00;0.00;;;2.90;1.00;;;;;;6213732;23;20387;-71
2021/03/05 01:47:46;;;;;;;0.00;0.00;;;2.90;1.00;;;;;;6213631;23;20380;-71
2021/03/05 01:50:15;;;;;;;0.00;0.00;;;3.00;1.00;;;;;;6213657;23;20680;-71
2021/03/05 01:52:46;;;;;;;0.00;0.00;;;3.00;1.00;;;;;;6213828;23;20433;-71
2021/03/05 01:55:13;;;;;;;0.00;0.00;;;3.00;1.00;;;;;;6213619;23;20371;-70
2021/03/05 01:57:39;;;;;;;0.00;0.00;;;3.00;1.00;;;;;;6213500;23;20441;-70
2021/03/05 02:00:07;;;;;;;0.00;0.00;;;2.90;1.00;;;;;;6213624;23;20407;-70
2021/03/05 02:02:34;;;;;;;0.00;0.00;;;3.00;99.90;;;;;;6214195;23;20874;-71
2021/03/05 02:05:00;;;;;;;0.00;0.00;;;2.90;99.90;;;;;;6215901;23;20383;-71
2021/03/05 02:07:27;;;;;;;0.00;0.00;;;2.80;99.90;;;;;;6214013;23;20703;-71
2021/03/05 02:09:53;;;;;;;0.00;0.00;;;2.90;99.90;;;;;;6214231;23;20384;-71
2021/03/05 02:12:19;;;;;;;0.00;0.00;;;2.80;99.90;;;;;;6215947;23;20842;-71
2021/03/05 02:14:46;;;;;;;0.00;0.00;;;2.90;99.90;;;;;;6214854;23;20376;-71
2021/03/05 02:17:18;;;;;;;0.00;0.00;;;2.90;99.90;;;;;;6213717;23;20379;-71
2021/03/05 02:20:05;;;;;;;0.00;0.00;;;2.90;99.90;;;;;;6213599;23;20378;-71
2021/03/05 02:23:07;;;;;;;0.00;0.00;;;2.90;99.90;;;;;;6214089;23;20380;-71
2021/03/05 02:26:06;;;;;;;0.00;0.00;;;3.00;99.90;;;;;;6213555;23;20384;-71
2021/03/05 02:29:00;;;;;;;0.00;0.00;;;3.00;99.90;;;;;;6213108;23;20371;-71
2021/03/05 02:31:35;;;;;;;0.00;0.00;;;3.00;99.90;;;;;;6213064;23;20371;-71
2021/03/05 02:34:05;;;;;;;0.00;0.00;;;3.00;99.90;;;;;;6213569;23;20371;-71
2021/03/05 02:36:35;;;;;;;0.00;0.00;;;3.00;99.90;;;;;;6213175;23;20400;-71
2021/03/05 02:39:08;;;;;;;0.00;0.00;;;3.00;99.90;;;;;;6213082;23;20380;-71
2021/03/05 02:41:38;;;;;;;0.00;0.00;;;3.10;99.90;;;;;;6213217;23;20375;-70
2021/03/05 02:44:09;;;;;;;0.00;0.00;;;3.00;99.90;;;;;;6213588;23;20382;-70
2021/03/05 02:46:39;;;;;;;0.00;0.00;;;3.00;99.90;;;;;;6213181;23;20927;-70
2021/03/05 02:49:08;;;;;;;0.00;0.00;;;2.90;99.90;;;;;;6213515;23;20378;-71
2021/03/05 02:51:36;;;;;;;0.00;0.00;;;2.90;99.90;;;;;;6213336;23;20379;-71
2021/03/05 02:54:04;;;;;;;0.00;0.00;;;2.90;99.90;;;;;;6212995;23;20372;-70
2021/03/05 02:56:33;;;;;;;0.00;0.00;;;3.00;99.90;;;;;;6213269;23;20375;-70
2021/03/05 02:59:01;;;;;;;0.00;0.00;;;2.90;99.90;;;;;;6212623;23;20408;-71
2021/03/05 03:01:27;;;;;;;0.00;0.00;;;2.90;99.90;;;;;;6213218;23;20426;-70
2021/03/05 03:03:57;;;;;;;0.00;0.00;;;2.90;99.90;;;;;;6212954;23;20453;-71
2021/03/05 03:06:25;;;;;;;0.00;0.00;;;2.90;99.90;;;;;;6212864;23;20894;-70
2021/03/05 03:08:53;;;;;;;0.00;0.00;;;2.80;99.90;;;;;;6212925;23;20376;-70
2021/03/05 03:11:20;;;;;;;0.00;0.00;;;2.80;99.90;;;;;;6213320;23;20371;-70
2021/03/05 03:13:47;;;;;;;0.00;0.00;;;2.80;99.90;;;;;;6213565;23;20501;-70
2021/03/05 03:16:16;;;;;;;0.00;0.00;;;2.90;99.90;;;;;;6212768;23;20380;-70
2021/03/05 03:18:43;;;;;;;0.00;0.00;;;2.90;99.90;;;;;;6212611;23;20444;-70
2021/03/05 03:21:11;;;;;;;0.00;0.00;;;2.80;99.90;;;;;;6213239;23;20376;-70
2021/03/05 03:23:39;;;;;;;0.00;0.00;;;2.70;99.90;;;;;;6213279;23;20375;-70
2021/03/05 03:26:07;;;;;;;0.00;0.00;;;2.80;99.90;;;;;;6213162;23;20498;-70
2021/03/05 03:28:33;;;;;;;0.00;0.00;;;2.70;99.90;;;;;;6212347;23;20394;-70
2021/03/05 03:30:59;;;;;;;0.00;0.00;;;2.80;99.90;;;;;;6213445;23;20380;-70
2021/03/05 03:33:26;;;;;;;0.00;0.00;;;2.80;99.90;;;;;;6213444;23;20485;-70
2021/03/05 03:35:52;;;;;;;0.00;0.00;;;2.70;99.90;;;;;;6213613;23;20375;-70
2021/03/05 03:38:21;;;;;;;0.00;0.00;;;2.80;99.90;;;;;;6212948;23;20707;-70
2021/03/05 03:40:48;;;;;;;0.00;0.00;;;2.70;99.90;;;;;;6212611;23;20379;-70
2021/03/05 03:43:15;;;;;;;0.00;0.00;;;2.70;99.90;;;;;;6213138;23;20382;-70
2021/03/05 03:45:42;;;;;;;0.00;0.00;;;2.70;99.90;;;;;;6212827;23;20384;-70
2021/03/05 03:48:10;;;;;;;0.00;0.00;;;2.80;99.90;;;;;;6212460;23;20854;-70
2021/03/05 03:50:43;;;;;;;0.00;0.00;;;2.80;99.90;;;;;;6212345;23;20407;-70
2021/03/05 03:53:13;;;;;;;0.00;0.00;;;2.90;99.90;;;;;;6214320;23;20406;-70
2021/03/05 03:55:40;;;;;;;0.00;0.00;;;2.90;99.90;;;;;;6214901;23;20375;-70
2021/03/05 03:58:08;;;;;;;0.00;0.00;;;2.90;99.90;;;;;;6214174;23;20429;-70
2021/03/05 04:00:35;;;;;;;0.00;0.00;;;3.00;99.90;;;;;;6214883;23;20379;-70
2021/03/05 04:03:04;;;;;;;0.00;0.00;;;2.90;99.90;;;;;;6214704;23;20375;-71
2021/03/05 04:05:33;;;;;;;0.00;0.00;;;2.90;99.90;;;;;;6215055;23;20874;-70
2021/03/05 04:08:00;;;;;;;0.00;0.00;;;2.80;99.90;;;;;;6214701;23;20702;-71
2021/03/05 04:10:27;;;;;;;0.00;0.00;;;2.70;99.90;;;;;;6214667;23;20376;-70
2021/03/05 04:12:55;;;;;;;0.00;0.00;;;2.70;99.90;;;;;;6214705;23;20451;-70
2021/03/05 04:15:24;;;;;;;0.00;0.00;;;2.60;99.90;;;;;;6214858;23;20379;-70
2021/03/05 04:17:51;;;;;;;0.00;0.00;;;2.50;99.90;;;;;;6214598;23;20510;-70
2021/03/05 04:20:19;;;;;;;0.00;0.00;;;2.40;99.90;;;;;;6214540;23;20379;-70
2021/03/05 04:22:46;;;;;;;0.00;0.00;;;2.40;99.90;;;;;;6214561;23;20442;-70
2021/03/05 04:25:13;;;;;;;0.00;0.00;;;2.40;99.90;;;;;;6214247;23;20411;-70
2021/03/05 04:27:40;;;;;;;0.00;0.00;;;2.40;99.90;;;;;;6214176;23;20390;-70
2021/03/05 04:30:10;;;;;;;0.00;0.00;;;2.40;99.90;;;;;;6214518;23;20383;-70
2021/03/05 04:32:37;;;;;;;0.00;0.00;;;2.40;99.90;;;;;;6216162;23;20372;-70
2021/03/05 04:35:04;;;;;;;0.00;0.00;;;2.40;99.90;;;;;;6215096;23;20886;-70
2021/03/05 04:37:30;;;;;;;0.00;0.00;;;2.30;99.90;;;;;;6214449;23;20372;-70
2021/03/05 04:39:57;;;;;;;0.00;0.00;;;2.30;99.90;;;;;;6215135;23;20375;-70
2021/03/05 04:42:23;;;;;;;0.00;0.00;;;2.30;99.90;;;;;;6214886;23;20411;-70
2021/03/05 04:44:49;;;;;;;0.00;0.00;;;2.20;99.90;;;;;;6214873;23;20395;-70
2021/03/05 04:47:16;;;;;;;0.00;0.00;;;2.10;99.90;;;;;;6214047;23;20395;-70
2021/03/05 04:49:42;;;;;;;0.00;0.00;;;2.10;99.90;;;;;;6215314;23;20379;-70
2021/03/05 04:52:08;;;;;;;0.00;0.00;;;1.90;99.90;;;;;;6214702;23;20854;-70
2021/03/05 04:54:34;;;;;;;0.00;0.00;;;1.80;99.90;;;;;;6215061;23;20371;-70
2021/03/05 04:57:01;;;;;;;0.00;0.00;;;1.70;99.90;;;;;;6215093;23;20743;-70
2021/03/05 04:59:27;;;;;;;0.00;0.00;;;1.50;99.90;;;;;;6214960;23;20408;-71
2021/03/05 05:01:53;;;;;;;0.00;0.00;;;1.50;99.90;;;;;;6215892;23;20372;-71
2021/03/05 05:04:20;;;;;;;0.00;0.00;;;1.50;99.90;;;;;;6214403;23;20439;-70
2021/03/05 05:06:46;;;;;;;0.00;0.00;;;1.40;99.90;;;;;;6215280;23;20388;-71
2021/03/05 05:09:12;;;;;;;0.00;0.00;;;1.20;99.90;;;;;;6215338;23;20378;-70
2021/03/05 05:11:38;;;;;;;0.00;0.00;;;1.20;99.90;;;;;;6215330;23;20379;-70
2021/03/05 05:14:04;;;;;;;0.00;0.00;;;1.10;99.90;;;;;;6214674;23;20376;-71
2021/03/05 05:16:31;;;;;;;0.00;0.00;;;1.00;99.90;;;;;;6212245;23;20371;-71
2021/03/05 05:18:57;;;;;;;0.00;0.00;;;1.00;99.90;;;;;;6215635;23;20371;-71
2021/03/05 05:21:24;;;;;;;0.00;0.00;;;0.90;99.90;;;;;;6215829;23;20376;-71
2021/03/05 05:23:50;;;;;;;0.00;0.00;;;0.90;99.90;;;;;;6215100;23;20426;-71
2021/03/05 05:26:17;;;;;;;0.00;0.00;;;0.80;99.90;;;;;;6214330;23;20383;-70
2021/03/05 05:28:43;;;;;;;0.00;0.00;;;0.70;99.90;;;;;;6212348;23;20383;-70
2021/03/05 05:31:09;;;;;;;0.00;0.00;;;0.60;99.90;;;;;;6212974;23;20376;-70
2021/03/05 05:33:35;;;;;;;0.00;0.00;;;0.60;99.90;;;;;;6213136;23;20379;-71
2021/03/05 05:36:01;;;;;;;0.00;0.00;;;0.50;99.90;;;;;;6213373;23;20372;-72
2021/03/05 05:38:28;;;;;;;0.00;0.00;;;0.50;99.90;;;;;;6212664;23;20861;-68
2021/03/05 05:40:54;;;;;;;0.00;0.00;;;0.50;99.90;;;;;;6212754;23;20685;-68
2021/03/05 05:43:21;;;;;;;0.00;0.00;;;0.30;99.90;;;;;;6213362;23;20375;-68
2021/03/05 05:45:47;;;;;;;0.00;0.00;;;0.30;99.90;;;;;;6212698;23;20722;-68
2021/03/05 05:48:13;;;;;;;0.00;0.00;;;0.30;99.90;;;;;;6213206;23;20379;-68
2021/03/05 05:50:42;;;;;;;0.00;0.00;;;0.20;99.90;;;;;;6213413;23;20379;-68
2021/03/05 05:53:09;;;;;;;0.00;0.00;;;0.20;99.90;;;;;;6214463;23;20372;-68
2021/03/05 05:55:36;;;;;;;0.00;0.00;;;0.10;99.90;;;;;;6213630;23;20380;-68
2021/03/05 05:58:03;;;;;;;0.00;0.00;;;0.10;99.90;;;;;;6212619;23;20368;-68
2021/03/05 06:00:29;;;;;;;0.00;0.00;;;0.00;99.90;;;;;;6213201;23;20376;-68
2021/03/05 06:02:55;;;;;;;0.00;0.00;;;0.00;99.90;;;;;;6214428;23;20916;-68
2021/03/05 06:05:22;;;;;;;0.00;0.00;;;0.00;99.90;;;;;;6215365;23;20378;-68
2021/03/05 06:07:48;;;;;;;0.00;0.00;;;-0.10;99.90;;;;;;6213083;23;21150;-69
2021/03/05 06:10:15;;;;;;;0.00;0.00;;;-0.10;99.90;;;;;;6213415;23;20409;-69
2021/03/05 06:12:42;;;;;;;0.00;0.00;;;0.00;99.90;;;;;;6214911;23;20375;-68
2021/03/05 06:15:09;;;;;;;0.00;0.00;;;-0.20;99.90;;;;;;6216474;23;20379;-69
2021/03/05 06:17:43;;;;;;;0.00;0.00;;;-0.30;99.90;;;;;;6214559;23;20367;-69
2021/03/05 06:20:10;;;;;;;0.00;0.00;;;-0.20;99.90;;;;;;6213199;23;20376;-69
2021/03/05 06:22:37;;;;;;;0.00;0.00;;;-0.20;99.90;;;;;;6213124;23;20841;-68
2021/03/05 06:25:04;;;;;;;0.00;0.00;;;-0.20;99.90;;;;;;6212610;23;20383;-70
2021/03/05 06:27:31;;;;;;;0.00;0.00;;;-0.20;99.90;;;;;;6209684;23;20394;-68
2021/03/05 06:29:58;;;;;;;0.00;0.00;;;-0.20;99.90;;;;;;6211386;23;20382;-69
2021/03/05 06:32:38;;;;;;;0.00;0.00;;;0.00;99.90;;;;;;6212542;23;20379;-69
2021/03/05 06:35:06;;;;;;;0.00;0.00;;;0.10;99.90;;;;;;6212537;23;20383;-70
2021/03/05 06:37:52;;;;;;;0.00;0.00;;;0.10;99.90;;;;;;6211837;23;20375;-68
2021/03/05 06:40:18;;;;;;;0.00;0.00;;;0.10;99.90;;;;;;6211563;23;20383;-68
2021/03/05 06:42:49;;;;;;;0.00;0.00;;;0.00;99.90;;;;;;6212671;23;20383;-68
2021/03/05 06:45:18;;;;;;;0.00;0.00;;;0.00;99.90;;;;;;6212514;23;20380;-73
2021/03/05 06:48:03;;;;;;;0.00;0.00;;;-0.10;99.90;;;;;;6211865;23;20865;-71
2021/03/05 06:50:34;;;;;;;0.00;0.00;;;-0.10;99.90;;;;;;6213356;23;20376;-73
2021/03/05 06:53:00;;;;;;;0.00;0.00;;;-0.30;99.90;;;;;;6212799;23;20375;-72
2021/03/05 06:55:26;;;;;;;0.00;0.00;;;-0.30;99.90;;;;;;6212227;23;20371;-72
2021/03/05 06:57:54;;;;;;;0.00;0.00;;;-0.30;99.90;;;;;;6212102;23;20375;-72
2021/03/05 07:00:23;;;;;;;0.00;0.00;;;-0.30;99.90;;;;;;6212265;23;20375;-71
2021/03/05 07:02:50;;;;;;;0.00;0.00;;;-0.20;99.90;;;;;;6212377;23;20799;-71
2021/03/05 07:05:17;;;;;;;0.00;0.00;;;-0.10;99.90;;;;;;6212632;23;20397;-73
2021/03/05 07:07:44;;;;;;;0.00;0.00;;;-0.10;99.90;;;;;;6211572;23;20470;-70
2021/03/05 07:10:12;;;;;;;0.00;0.00;;;-0.20;99.90;;;;;;6212291;23;20395;-68
2021/03/05 07:12:58;;;;;;;0.00;0.00;;;-0.20;99.90;;;;;;6212282;23;20376;-70
2021/03/05 07:15:25;;;;;;;0.00;0.00;;;-0.20;99.90;;;;;;6211909;23;20399;-70
2021/03/05 07:17:52;;;;;;;0.00;0.00;;;-0.10;99.90;;;;;;6211954;23;20386;-68
2021/03/05 07:20:18;;;;;;;0.00;0.00;;;0.10;99.90;;;;;;6212012;23;20873;-70
2021/03/05 07:22:47;;;;;;;0.00;0.00;;;0.20;99.90;;;;;;6213097;23;20425;-70
2021/03/05 07:25:16;;;;;;;0.00;0.00;;;0.20;99.90;;;;;;6211833;23;20474;-70
2021/03/05 07:27:45;;;;;;;0.00;0.00;;;0.00;99.90;;;;;;6213310;23;20426;-71
2021/03/05 07:30:14;;;;;;;0.00;0.00;;;-0.10;99.90;;;;;;6214066;23;20418;-70
2021/03/05 07:32:48;;;;;;;0.00;0.00;;;0.10;99.90;;;;;;6214248;23;20382;-73
2021/03/05 07:35:35;;;;;;;0.00;0.00;;;0.20;99.90;;;;;;6214683;23;20422;-74
2021/03/05 07:38:03;;;;;;;0.00;0.00;;;0.20;99.90;;;;;;6208391;23;20422;-71
2021/03/05 07:40:31;;;;;;;0.00;0.00;;;0.90;99.90;;;;;;6214207;23;20382;-73
2021/03/05 07:42:59;;;;;;;0.00;0.00;;;0.40;99.90;;;;;;6214219;23;20384;-72
2021/03/05 07:45:25;;;;;;;0.00;0.00;;;0.40;99.90;;;;;;6213909;23;20371;-73
2021/03/05 07:47:54;;;;;;;0.00;0.00;;;0.50;99.90;;;;;;6213845;23;20375;-73
2021/03/05 07:50:23;;;;;;;0.00;0.00;;;0.40;99.90;;;;;;6214039;23;20434;-68
2021/03/05 07:52:58;;;;;;;0.00;0.00;;;0.40;99.90;;;;;;6214228;23;20418;-68
2021/03/05 07:55:35;;;;;;;0.00;0.00;;;1.40;99.90;;;;;;6214115;23;20375;-72
2021/03/05 07:58:01;;;;;;;0.00;0.00;;;0.20;99.90;;;;;;6213649;23;20446;-71
2021/03/05 08:00:49;;;;;;;0.00;0.00;;;0.10;99.90;;;;;;6213807;23;20375;-70
2021/03/05 08:03:17;;;;;;;0.00;0.00;;;0.20;99.90;;;;;;6214435;23;20371;-69
2021/03/05 08:05:45;;;;;;;0.00;0.00;;;0.40;99.90;;;;;;6213738;23;20375;-70
2021/03/05 08:08:17;;;;;;;0.00;0.00;;;0.30;99.90;;;;;;6213394;23;20457;-69
2021/03/05 08:10:45;;;;;;;0.00;0.00;;;0.30;99.90;;;;;;6214086;23;20380;-69
2021/03/05 08:13:35;;;;;;;0.00;0.00;;;0.50;99.90;;;;;;6213845;23;20395;-70
2021/03/05 08:16:33;;;;;;;0.00;0.00;;;0.60;99.90;;;;;;6213872;23;20376;-71
2021/03/05 08:19:34;;;;;;;0.00;0.00;;;0.60;99.90;;;;;;6213120;23;20702;-72
2021/03/05 08:22:02;;;;;;;0.00;0.00;;;0.50;99.90;;;;;;6213265;23;20383;-67
2021/03/05 08:24:30;;;;;;;0.00;0.00;;;0.60;99.90;;;;;;6213805;23;20386;-69
2021/03/05 08:26:59;;;;;;;0.00;0.00;;;0.60;99.90;;;;;;6213541;23;20387;-72
2021/03/05 08:30:04;;;;;;;0.00;0.00;;;0.60;99.90;;;;;;6213556;23;20750;-71
2021/03/05 08:32:47;;;;;;;0.00;0.00;;;0.60;99.90;;;;;;6092000;23;20386;-68
2021/03/05 08:35:14;;;;;;;0.00;0.00;;;0.70;99.90;;;;;;6092181;23;20386;-69
2021/03/05 08:37:43;;;;;;;0.00;0.00;;;0.50;99.90;;;;;;6163847;23;21112;-71
2021/03/05 08:40:29;;;;;;;0.00;0.00;;;0.50;99.90;;;;;;6213705;23;20376;-71
2021/03/05 08:43:16;;;;;;;0.00;0.00;;;0.70;99.90;;;;;;6213796;23;20395;-69
2021/03/05 08:45:45;;;;;;;0.00;0.00;;;0.90;99.90;;;;;;6213592;23;20487;-70
2021/03/05 08:48:15;;;;;;;0.00;0.00;;;1.10;99.90;;;;;;6213126;23;20376;-73
2021/03/05 08:50:42;;;;;;;0.00;0.00;;;1.20;99.90;;;;;;6213359;23;20379;-71
2021/03/05 08:53:11;;;;;;;0.00;0.00;;;1.40;99.90;;;;;;6213591;23;20921;-71
2021/03/05 08:55:39;;;;;;;0.00;0.00;;;1.30;99.90;;;;;;6213430;23;20379;-71
2021/03/05 08:58:06;;;;;;;0.00;0.00;;;1.40;99.90;;;;;;6213178;23;20376;-71
2021/03/05 09:00:33;;;;;;;0.00;0.00;;;1.50;99.90;;;;;;6213658;23;20386;-71
2021/03/05 09:03:04;;;;;;;0.00;0.00;;;1.40;99.90;;;;;;6213394;23;20486;-68
2021/03/05 09:05:33;;;;;;;0.00;0.00;;;1.20;99.90;;;;;;6214100;23;20376;-68
2021/03/05 09:07:59;;;;;;;0.00;0.00;;;1.20;99.90;;;;;;6212772;23;20722;-69
2021/03/05 09:10:40;;;;;;;0.00;0.00;;;1.30;99.90;;;;;;6213688;23;20703;-69
2021/03/05 09:13:07;;;;;;;0.00;0.00;;;1.40;99.90;;;;;;6213481;23;20375;-72
2021/03/05 09:15:44;;;;;;;0.00;0.00;;;1.40;99.90;;;;;;6213269;23;20379;-71
2021/03/05 09:18:16;;;;;;;0.00;0.00;;;1.60;99.90;;;;;;6212621;23;20376;-73
2021/03/05 09:20:45;;;;;;;0.00;0.00;;;1.80;99.90;;;;;;6213202;23;20372;-72
2021/03/05 09:23:26;;;;;;;0.00;0.00;;;1.70;99.90;;;;;;6212887;23;20433;-70
2021/03/05 09:25:54;;;;;;;0.00;0.00;;;1.60;99.90;;;;;;6212954;23;20375;-71
2021/03/05 09:28:22;;;;;;;0.00;0.00;;;1.70;99.90;;;;;;6213146;23;20843;-69
2021/03/05 09:30:54;;;;;;;0.00;0.00;;;1.60;99.90;;;;;;6213561;23;20386;-70
2021/03/05 09:33:28;;;;;;;0.00;0.00;;;2.00;99.90;;;;;;6212861;23;20414;-68
2021/03/05 09:36:03;;;;;;;0.00;0.00;;;2.10;99.90;;;;;;6213410;23;20371;-70
2021/03/05 09:38:30;;;;;;;0.00;0.00;;;2.20;99.90;;;;;;6212625;23;20715;-69
2021/03/05 09:41:14;;;;;;;0.00;0.00;;;1.50;99.90;;;;;;6214052;23;20375;-72
2021/03/05 09:43:43;;;;;;;0.00;0.00;;;3.30;99.90;;;;;;6211972;23;20715;-70
2021/03/05 09:46:20;;;;;;;0.00;0.00;;;2.00;99.90;;;;;;6213738;23;20388;-70
2021/03/05 09:48:47;;;;;;;0.00;0.00;;;2.10;99.90;;;;;;6212628;23;20382;-71
2021/03/05 09:51:14;;;;;;;0.00;0.00;;;2.20;99.90;;;;;;6213033;23;20387;-70
2021/03/05 09:53:51;;;;;;;0.00;0.00;;;2.20;99.90;;;;;;6213147;23;20371;-68
2021/03/05 09:56:19;;;;;;;0.00;0.00;;;2.40;99.90;;;;;;6212526;23;20506;-69
2021/03/05 09:58:54;;;;;;;0.00;0.00;;;2.50;99.90;;;;;;6212604;23;20375;-68
2021/03/05 10:01:20;;;;;;;0.00;0.00;;;2.60;99.90;;;;;;6212714;23;20380;-71
2021/03/05 10:03:52;;;;;;;0.00;0.00;;;2.60;99.90;;;;;;6213202;23;20378;-73
2021/03/05 10:06:18;;;;;;;0.00;0.00;;;2.80;99.90;;;;;;6213429;23;20396;-72
2021/03/05 10:08:44;;;;;;;0.00;0.00;;;3.10;99.90;;;;;;6212443;23;20387;-72
2021/03/05 10:11:12;;;;;;;0.00;0.00;;;3.30;99.90;;;;;;6213539;23;20379;-72
2021/03/05 10:13:52;;;;;;;0.00;0.00;;;3.40;99.90;;;;;;6212793;23;20858;-72
2021/03/05 10:16:21;;;;;;;0.00;0.00;;;3.60;99.90;;;;;;6213163;23;20388;-71
2021/03/05 10:18:48;;;;;;;0.00;0.00;;;3.60;99.90;;;;;;6212374;23;20383;-72
2021/03/05 10:21:16;;;;;;;0.00;0.00;;;3.10;99.90;;;;;;6213598;23;20380;-69
2021/03/05 10:23:45;;;;;;;0.00;0.00;;;3.20;99.90;;;;;;6213422;23;20387;-71
2021/03/05 10:26:14;;;;;;;0.00;0.00;;;3.20;99.90;;;;;;6213169;23;20387;-70
2021/03/05 10:28:40;;;;;;;0.00;0.00;;;3.20;99.90;;;;;;6212009;23;20384;-68
2021/03/05 10:31:08;;;;;;;0.00;0.00;;;3.20;99.90;;;;;;6212812;23;20407;-68
2021/03/05 10:33:35;;;;;;;0.00;0.00;;;2.90;99.90;;;;;;6212603;23;20433;-68
2021/03/05 10:36:01;;;;;;;0.00;0.00;;;3.10;99.90;;;;;;6213259;23;20394;-68
2021/03/05 10:38:28;;;;;;;0.00;0.00;;;3.30;99.90;;;;;;6211707;23;20375;-70
2021/03/05 10:40:54;;;;;;;0.00;0.00;;;3.40;99.90;;;;;;6212573;23;20711;-68
2021/03/05 10:43:20;;;;;;;0.00;0.00;;;3.50;99.90;;;;;;6212493;23;20376;-67
2021/03/05 10:45:47;;;;;;;0.00;0.00;;;3.50;99.90;;;;;;6213044;23;20371;-68
2021/03/05 10:48:14;;;;;;;0.00;0.00;;;3.60;99.90;;;;;;6212579;23;20378;-67
2021/03/05 10:50:40;;;;;;;0.00;0.00;;;3.70;99.90;;;;;;6212528;23;20882;-72
2021/03/05 10:53:06;;;;;;;0.00;0.00;;;3.50;99.90;;;;;;6213181;23;20375;-72
2021/03/05 10:55:32;;;;;;;0.00;0.00;;;3.60;99.90;;;;;;6212301;23;20767;-69
2021/03/05 10:57:59;;;;;;;0.00;0.00;;;3.60;99.90;;;;;;6212464;23;20389;-68
2021/03/05 11:00:26;;;;;;;0.00;0.00;;;3.60;99.90;;;;;;6212509;23;20382;-69
2021/03/05 11:02:55;;;;;;;0.00;0.00;;;3.80;99.90;;;;;;6214698;23;20380;-69
2021/03/05 11:05:22;;;;;;;0.00;0.00;;;3.90;99.90;;;;;;6214472;23;20695;-68
2021/03/05 11:07:48;;;;;;;0.00;0.00;;;3.80;99.90;;;;;;6213674;23;20399;-69
2021/03/05 11:10:15;;;;;;;0.00;0.00;;;4.00;99.90;;;;;;6213998;23;20391;-73
2021/03/05 11:12:41;;;;;;;0.00;0.00;;;4.30;99.90;;;;;;6214139;23;20383;-69
2021/03/05 11:15:09;;;;;;;0.00;0.00;;;4.60;99.90;;;;;;6214609;23;20411;-70
2021/03/05 11:17:35;;;;;;;0.00;0.00;;;4.60;99.90;;;;;;6214237;23;20394;-69
2021/03/05 11:20:01;;;;;;;0.00;0.00;;;4.50;99.90;;;;;;6214011;23;20893;-70
2021/03/05 11:22:28;;;;;;;0.00;0.00;;;4.00;99.90;;;;;;6214473;23;20378;-69
2021/03/05 11:25:11;;;;;;;0.00;0.00;;;4.10;99.90;;;;;;6214262;23;20445;-72
2021/03/05 11:27:37;;;;;;;0.00;0.00;;;4.10;99.90;;;;;;6187570;23;20440;-70
2021/03/05 11:30:06;;;;;;;0.00;0.00;;;4.10;99.90;;;;;;6213211;23;20386;-70
2021/03/05 11:32:35;;;;;;;0.00;0.00;;;4.00;99.90;;;;;;6212147;23;20387;-71
2021/03/05 11:35:03;;;;;;;0.00;0.00;;;4.20;99.90;;;;;;6214270;23;20409;-75
2021/03/05 11:37:35;;;;;;;0.00;0.00;;;4.20;99.90;;;;;;6213586;23;20371;-71
2021/03/05 11:40:01;;;;;;;0.00;0.00;;;4.10;99.90;;;;;;6212401;23;20465;-73
2021/03/05 11:42:28;;;;;;;0.00;0.00;;;4.30;99.90;;;;;;6214548;23;20382;-72
2021/03/05 11:45:05;;;;;;;0.00;0.00;;;4.40;99.90;;;;;;6214296;23;20791;-71
2021/03/05 11:47:31;;;;;;;0.00;0.00;;;4.60;99.90;;;;;;6211991;23;20485;-71
2021/03/05 11:49:58;;;;;;;0.00;0.00;;;4.70;99.90;;;;;;6213389;23;20881;-71
2021/03/05 11:52:24;;;;;;;0.00;0.00;;;4.70;99.90;;;;;;6213482;23;20371;-70
2021/03/05 11:54:51;;;;;;;0.00;0.00;;;4.70;99.90;;;;;;6213464;23;20391;-70
2021/03/05 11:57:18;;;;;;;0.00;0.00;;;4.80;99.90;;;;;;6214489;23;20440;-69
2021/03/05 11:59:46;;;;;;;0.00;0.00;;;4.90;99.90;;;;;;6213546;23;20384;-71
2021/03/05 12:02:13;;;;;;;0.00;0.00;;;5.00;99.90;;;;;;6212739;23;20978;-71
2021/03/05 12:04:39;;;;;;;0.00;0.00;;;4.80;99.90;;;;;;6213434;23;20433;-71
2021/03/05 12:07:06;;;;;;;0.00;0.00;;;5.90;99.90;;;;;;6213531;23;20441;-70
2021/03/05 12:09:38;;;;;;;0.00;0.00;;;4.70;99.90;;;;;;6213106;23;20410;-71
2021/03/05 12:12:08;;;;;;;0.00;0.00;;;4.60;99.90;;;;;;6213943;23;20379;-73
2021/03/05 12:14:36;;;;;;;0.00;0.00;;;4.70;99.90;;;;;;6212659;23;20385;-73
2021/03/05 12:17:07;;;;;;;0.00;0.00;;;4.80;99.90;;;;;;6213577;23;20415;-74
2021/03/05 12:19:34;;;;;;;0.00;0.00;;;4.90;99.90;;;;;;6211672;23;20458;-72
2021/03/05 12:22:05;;;;;;;0.00;0.00;;;4.90;99.90;;;;;;6213695;23;20699;-73
2021/03/05 12:27:19;;;;;;;0.00;0.00;;;4.80;99.90;;;;;;6211730;23;20431;-69
2021/03/05 12:29:45;;;;;;;0.00;0.00;;;5.00;99.90;;;;;;6212413;23;20433;-70
2021/03/05 12:32:11;;;;;;;0.00;0.00;;;5.10;99.90;;;;;;6213453;23;20376;-70
2021/03/05 12:34:37;;;;;;;0.00;0.00;;;5.10;99.90;;;;;;6214199;23;20375;-69
2021/03/05 12:37:03;;;;;;;0.00;0.00;;;5.10;99.90;;;;;;6213549;23;20442;-68
2021/03/05 12:39:30;;;;;;;0.00;0.00;;;5.10;99.90;;;;;;6212792;23;20407;-69
2021/03/05 12:41:56;;;;;;;0.00;0.00;;;5.20;99.90;;;;;;6213674;23;20380;-68
2021/03/05 12:44:23;;;;;;;0.00;0.00;;;5.10;99.90;;;;;;6213448;23;20466;-68
2021/03/05 12:46:49;;;;;;;0.00;0.00;;;4.90;99.90;;;;;;6213590;23;20407;-69
2021/03/05 12:49:15;;;;;;;0.00;0.00;;;4.80;99.90;;;;;;6212786;23;20434;-67
2021/03/05 12:51:41;;;;;;;0.00;0.00;;;4.90;99.90;;;;;;6213419;23;20384;-67
2021/03/05 12:54:08;;;;;;;0.00;0.00;;;5.10;99.90;;;;;;6213528;23;20426;-72
2021/03/05 12:56:34;;;;;;;0.00;0.00;;;5.20;99.90;;;;;;6213877;23;20371;-69
2021/03/05 12:59:00;;;;;;;0.00;0.00;;;5.30;99.90;;;;;;6213217;23;20391;-68
2021/03/05 13:01:28;;;;;;;0.00;0.00;;;5.30;99.90;;;;;;6213091;23;20376;-67
2021/03/05 13:03:54;;;;;;;0.00;0.00;;;5.30;99.90;;;;;;6213115;23;20446;-68
2021/03/05 13:06:20;;;;;;;0.00;0.00;;;5.30;99.90;;;;;;6213310;23;20890;-67
2021/03/05 13:08:46;;;;;;;0.00;0.00;;;5.30;99.90;;;;;;6212081;23;20483;-67